Time;durP1;ratioP1;P1;durP2;ratioP2;P2;SDS_P1;SDS_P2;PMS_P1;PMS_P2;Temp;Humidity;BMP_temperature;BMP_pressure;BME280_temperature;BME280_humidity;BME280_pressure;Samples;Min_cycle;Max_cycle;Signal;HPM_P1;HPM_P2
2022/01/14 00:01:19;;;;;;;15.75;8.32;;;;;;;;;;5017310;28;20028;-71
2022/01/14 00:03:45;;;;;;;14.63;7.80;;;;;;;;;;5030027;28;20018;-71
2022/01/14 00:06:11;;;;;;;14.75;8.30;;;;;;;;;;5024429;28;20391;-71
2022/01/14 00:08:37;;;;;;;14.32;7.82;;;;;;;;;;5023101;28;20026;-71
2022/01/14 00:11:13;;;;;;;16.33;7.50;;;;;;;;;;5030933;28;20029;-71
2022/01/14 00:13:53;;;;;;;15.35;8.57;;;;;;;;;;5019418;28;20048;-71
2022/01/14 00:16:19;;;;;;;14.90;8.52;;;;;;;;;;5007489;28;20084;-71
2022/01/14 00:18:46;;;;;;;18.58;8.75;;;;;;;;;;5028301;28;20041;-71
2022/01/14 00:21:12;;;;;;;14.70;8.30;;;;;;;;;;5000475;28;20542;-71
2022/01/14 00:23:40;;;;;;;12.98;8.32;;;;;;;;;;5030187;28;20038;-71
2022/01/14 00:34:17;;;;;;;17.20;8.93;;;;;;;;;;5034476;28;20093;-71
2022/01/14 00:36:44;;;;;;;14.93;8.02;;;;;;;;;;5021172;28;20026;-71
2022/01/14 00:39:11;;;;;;;15.07;8.82;;;;;;;;;;5030707;28;20103;-70
2022/01/14 00:41:37;;;;;;;18.10;8.35;;;;;;;;;;5018580;28;20022;-70
2022/01/14 00:44:09;;;;;;;15.70;8.88;;;;;;;;;;5026377;28;20025;-70
2022/01/14 00:46:35;;;;;;;15.02;8.45;;;;;;;;;;5025676;28;20111;-70
2022/01/14 00:49:01;;;;;;;14.80;8.23;;;;;;;;;;5018724;28;20100;-70
2022/01/14 00:51:28;;;;;;;15.80;8.88;;;;;;;;;;5030609;28;20029;-70
2022/01/14 00:53:54;;;;;;;15.98;8.55;;;;;;;;;;5020290;28;20025;-70
2022/01/14 01:01:34;;;;;;;15.63;8.30;;;;;;;;;;5022438;28;20028;-70
2022/01/14 01:04:00;;;;;;;15.25;8.48;;;;;;;;;;5033481;28;20026;-71
2022/01/14 01:06:26;;;;;;;14.68;8.60;;;;;;;;;;5022870;28;20029;-70
2022/01/14 01:08:55;;;;;;;16.63;8.95;;;;;;;;;;5028178;28;20100;-71
2022/01/14 01:11:26;;;;;;;18.02;9.23;;;;;;;;;;5017194;28;20505;-71
2022/01/14 01:14:06;;;;;;;14.07;8.25;;;;;;;;;;5009738;28;20025;-71
2022/01/14 01:16:32;;;;;;;14.95;8.88;;;;;;;;;;5025225;28;20395;-71
2022/01/14 01:18:58;;;;;;;16.63;8.23;;;;;;;;;;5018381;28;20022;-71
2022/01/14 01:21:24;;;;;;;17.90;8.95;;;;;;;;;;5030152;28;20022;-71
2022/01/14 01:23:50;;;;;;;15.32;7.97;;;;;;;;;;5019159;28;20049;-72
2022/01/14 01:26:24;;;;;;;18.67;9.63;;;;;;;;;;4990360;28;20025;-71
2022/01/14 01:29:46;;;;;;;16.83;9.60;;;;;;;;;;5010079;28;20029;-71
2022/01/14 01:31:40;;;;;;;16.80;9.60;;;;;;;;;;4995101;28;20038;-71
2022/01/14 01:34:08;;;;;;;20.95;10.30;;;;;;;;;;5004080;28;20108;-71
2022/01/14 01:36:34;;;;;;;19.75;10.07;;;;;;;;;;5005544;28;20056;-71
2022/01/14 01:39:00;;;;;;;20.15;9.85;;;;;;;;;;4998157;28;20027;-71
2022/01/14 01:41:27;;;;;;;22.42;11.15;;;;;;;;;;5008550;28;20021;-71
2022/01/14 01:43:54;;;;;;;21.45;11.75;;;;;;;;;;5000467;28;20499;-71
2022/01/14 01:46:21;;;;;;;22.52;11.30;;;;;;;;;;5002171;28;20050;-71
2022/01/14 01:48:48;;;;;;;22.23;12.65;;;;;;;;;;5007065;28;20099;-71
2022/01/14 01:51:14;;;;;;;25.08;10.63;;;;;;;;;;4996634;28;20026;-71
2022/01/14 01:53:40;;;;;;;19.70;10.70;;;;;;;;;;5008610;28;20508;-71
2022/01/14 01:56:06;;;;;;;23.83;11.50;;;;;;;;;;5001261;28;20030;-71
2022/01/14 01:58:32;;;;;;;20.58;11.02;;;;;;;;;;4999374;28;20066;-71
2022/01/14 02:00:58;;;;;;;23.83;11.70;;;;;;;;;;5008151;28;20373;-70
2022/01/14 02:03:24;;;;;;;21.35;11.52;;;;;;;;;;5009285;28;20109;-71
2022/01/14 02:05:50;;;;;;;21.48;11.55;;;;;;;;;;4999087;28;20028;-71
2022/01/14 02:08:16;;;;;;;25.50;12.38;;;;;;;;;;5003772;28;20076;-71
2022/01/14 02:10:42;;;;;;;23.50;12.43;;;;;;;;;;5006053;28;20038;-71
2022/01/14 02:13:10;;;;;;;22.85;12.50;;;;;;;;;;4994831;28;20065;-71
2022/01/14 02:15:49;;;;;;;23.58;12.82;;;;;;;;;;5008851;28;20469;-71
2022/01/14 02:23:31;;;;;;;29.58;14.23;;;;;;;;;;5009092;28;20072;-71
2022/01/14 02:25:58;;;;;;;28.75;13.65;;;;;;;;;;4998546;28;20029;-71
2022/01/14 02:28:24;;;;;;;24.98;13.68;;;;;;;;;;5002236;28;20034;-71
2022/01/14 02:30:51;;;;;;;32.10;14.07;;;;;;;;;;5020262;28;20136;-71
2022/01/14 02:33:18;;;;;;;26.20;13.55;;;;;;;;;;5015558;28;20033;-71
2022/01/14 02:35:46;;;;;;;26.88;13.60;;;;;;;;;;5027185;28;20033;-71
2022/01/14 02:38:13;;;;;;;26.67;14.82;;;;;;;;;;5021348;28;20021;-71
2022/01/14 02:40:40;;;;;;;27.27;14.77;;;;;;;;;;5019720;28;20029;-71
2022/01/14 02:43:12;;;;;;;34.85;13.95;;;;;;;;;;5028167;28;20025;-71
2022/01/14 02:45:38;;;;;;;24.45;13.95;;;;;;;;;;5016728;28;20029;-71
2022/01/14 02:48:04;;;;;;;25.80;13.45;;;;;;;;;;5032328;28;20026;-71
2022/01/14 02:50:41;;;;;;;23.33;13.13;;;;;;;;;;5020917;28;20072;-71
2022/01/14 02:55:56;;;;;;;23.27;12.70;;;;;;;;;;5018594;28;20037;-71
2022/01/14 02:58:24;;;;;;;21.02;12.48;;;;;;;;;;5011174;28;20021;-71
2022/01/14 03:00:51;;;;;;;23.10;12.05;;;;;;;;;;5026401;28;20383;-71
2022/01/14 03:03:17;;;;;;;20.08;12.23;;;;;;;;;;5031743;28;20029;-71
2022/01/14 03:05:43;;;;;;;22.30;13.13;;;;;;;;;;5029098;28;20030;-71
2022/01/14 03:08:09;;;;;;;19.95;11.50;;;;;;;;;;5005450;28;20093;-71
2022/01/14 03:10:35;;;;;;;22.27;11.70;;;;;;;;;;5001964;28;20066;-71
2022/01/14 03:13:01;;;;;;;19.30;11.80;;;;;;;;;;5027221;28;20067;-71
2022/01/14 03:15:27;;;;;;;20.02;11.68;;;;;;;;;;5015184;28;20030;-71
2022/01/14 03:17:53;;;;;;;21.17;10.93;;;;;;;;;;5025389;28;20026;-71
2022/01/14 03:20:45;;;;;;;18.70;10.88;;;;;;;;;;5021696;28;20483;-71
2022/01/14 03:23:11;;;;;;;19.77;10.73;;;;;;;;;;5016343;28;20058;-71
2022/01/14 03:25:51;;;;;;;17.75;10.75;;;;;;;;;;5029596;28;20448;-71
2022/01/14 03:28:23;;;;;;;20.27;11.32;;;;;;;;;;5023049;28;20033;-71
2022/01/14 03:30:50;;;;;;;18.75;11.30;;;;;;;;;;5019453;28;20046;-71
2022/01/14 03:33:16;;;;;;;23.27;11.70;;;;;;;;;;5028823;28;20033;-71
2022/01/14 03:35:42;;;;;;;21.77;12.20;;;;;;;;;;5017114;28;20029;-71
2022/01/14 03:38:09;;;;;;;23.00;12.73;;;;;;;;;;5006025;28;20377;-71
2022/01/14 03:40:35;;;;;;;23.42;12.65;;;;;;;;;;5006270;28;20449;-71
2022/01/14 03:43:01;;;;;;;24.52;12.68;;;;;;;;;;5015667;28;20117;-71
2022/01/14 03:45:27;;;;;;;23.83;12.98;;;;;;;;;;5028414;28;20017;-71
2022/01/14 03:47:53;;;;;;;25.38;14.32;;;;;;;;;;5018415;28;20017;-71
2022/01/14 03:50:19;;;;;;;24.67;13.82;;;;;;;;;;5021890;28;20086;-71
2022/01/14 03:52:45;;;;;;;22.67;12.40;;;;;;;;;;5007098;28;20041;-70
2022/01/14 03:55:11;;;;;;;21.45;12.48;;;;;;;;;;5014783;28;20110;-71
2022/01/14 03:57:38;;;;;;;26.10;13.20;;;;;;;;;;5027093;28;20084;-71
2022/01/14 04:00:04;;;;;;;23.88;13.20;;;;;;;;;;5019360;28;20029;-72
2022/01/14 04:02:30;;;;;;;23.55;12.63;;;;;;;;;;5013602;28;20160;-72
2022/01/14 04:04:56;;;;;;;25.73;13.07;;;;;;;;;;5016647;28;20034;-71
2022/01/14 04:07:22;;;;;;;22.92;13.00;;;;;;;;;;5027972;28;20104;-71
2022/01/14 04:09:48;;;;;;;21.20;12.65;;;;;;;;;;5016889;28;20022;-71
2022/01/14 04:12:20;;;;;;;27.23;13.23;;;;;;;;;;5004535;28;20069;-71
2022/01/14 04:17:12;;;;;;;21.08;12.85;;;;;;;;;;5014713;28;20065;-71
2022/01/14 04:19:38;;;;;;;21.67;13.05;;;;;;;;;;5009209;28;20451;-71
2022/01/14 04:22:04;;;;;;;24.45;13.63;;;;;;;;;;5021385;28;20053;-71
2022/01/14 04:24:30;;;;;;;22.08;12.70;;;;;;;;;;5005301;28;20083;-71
2022/01/14 04:26:56;;;;;;;21.40;12.50;;;;;;;;;;5029699;28;20506;-72
2022/01/14 04:29:22;;;;;;;22.23;12.68;;;;;;;;;;5018090;28;20022;-71
2022/01/14 04:31:48;;;;;;;21.65;11.88;;;;;;;;;;5029135;28;20108;-71
2022/01/14 04:34:16;;;;;;;18.83;12.18;;;;;;;;;;5023776;28;20156;-71
2022/01/14 04:36:42;;;;;;;22.83;12.35;;;;;;;;;;5004573;28;20105;-71
2022/01/14 04:39:08;;;;;;;20.95;12.10;;;;;;;;;;5012867;28;20029;-71
2022/01/14 04:41:34;;;;;;;18.70;10.85;;;;;;;;;;5018120;28;20021;-71
2022/01/14 04:44:01;;;;;;;17.10;10.65;;;;;;;;;;5027284;28;20033;-72
2022/01/14 04:48:53;;;;;;;18.15;10.70;;;;;;;;;;5019808;28;20081;-71
2022/01/14 04:51:22;;;;;;;17.75;10.32;;;;;;;;;;5030496;28;20439;-71
2022/01/14 04:53:48;;;;;;;18.33;11.23;;;;;;;;;;5019453;28;20439;-71
2022/01/14 04:56:14;;;;;;;18.98;9.90;;;;;;;;;;5024901;28;20026;-71
2022/01/14 04:58:41;;;;;;;16.95;10.82;;;;;;;;;;5015628;28;20101;-71
2022/01/14 05:01:06;;;;;;;20.73;10.63;;;;;;;;;;5030294;28;20088;-71
2022/01/14 05:03:32;;;;;;;18.25;10.60;;;;;;;;;;5050081;28;20455;-71
2022/01/14 05:06:00;;;;;;;15.57;9.68;;;;;;;;;;5027701;28;20034;-72
2022/01/14 05:08:35;;;;;;;20.58;11.57;;;;;;;;;;5024696;28;20025;-71
2022/01/14 05:11:15;;;;;;;19.52;10.77;;;;;;;;;;5018294;28;20053;-71
2022/01/14 05:13:41;;;;;;;17.50;10.40;;;;;;;;;;5018365;28;20039;-71
2022/01/14 05:16:07;;;;;;;19.95;10.82;;;;;;;;;;5033748;28;20029;-71
2022/01/14 05:18:34;;;;;;;18.02;10.15;;;;;;;;;;5021863;28;20025;-71
2022/01/14 05:21:00;;;;;;;17.23;9.88;;;;;;;;;;5028995;28;20028;-71
2022/01/14 05:23:26;;;;;;;22.00;10.85;;;;;;;;;;5016878;28;20405;-71
2022/01/14 05:25:52;;;;;;;19.00;10.68;;;;;;;;;;5027573;28;20014;-71
2022/01/14 05:28:18;;;;;;;15.63;10.13;;;;;;;;;;5023435;28;20117;-71
2022/01/14 05:30:44;;;;;;;20.02;10.63;;;;;;;;;;5034936;22;20066;-73
2022/01/14 05:33:10;;;;;;;24.25;11.70;;;;;;;;;;5012181;28;20021;-72
2022/01/14 05:35:36;;;;;;;16.42;10.32;;;;;;;;;;4997670;28;20092;-72
2022/01/14 05:38:02;;;;;;;16.98;10.85;;;;;;;;;;5006017;28;20481;-73
2022/01/14 05:40:29;;;;;;;18.70;10.55;;;;;;;;;;4986992;28;20385;-72
2022/01/14 05:42:55;;;;;;;21.15;10.88;;;;;;;;;;4998736;28;20484;-72
2022/01/14 05:45:21;;;;;;;17.08;10.43;;;;;;;;;;5010013;28;20076;-72
2022/01/14 05:47:47;;;;;;;20.95;11.63;;;;;;;;;;4981584;28;20026;-73
2022/01/14 05:50:15;;;;;;;18.38;11.35;;;;;;;;;;5004071;28;20041;-72
2022/01/14 05:52:41;;;;;;;21.05;11.68;;;;;;;;;;5006052;28;20104;-72
2022/01/14 05:55:08;;;;;;;25.50;11.95;;;;;;;;;;4979370;28;20030;-71
2022/01/14 05:57:37;;;;;;;23.08;12.52;;;;;;;;;;4998194;28;20026;-72
2022/01/14 06:00:04;;;;;;;24.85;12.60;;;;;;;;;;5012963;28;20100;-72
2022/01/14 06:02:30;;;;;;;24.08;14.23;;;;;;;;;;4984156;28;20022;-73
2022/01/14 06:04:56;;;;;;;27.90;14.30;;;;;;;;;;4990917;28;20022;-73
2022/01/14 06:07:22;;;;;;;23.63;12.15;;;;;;;;;;4996302;28;20022;-72
2022/01/14 06:09:48;;;;;;;23.15;13.60;;;;;;;;;;5007482;28;20026;-73
2022/01/14 06:12:14;;;;;;;25.70;12.93;;;;;;;;;;5001944;28;20028;-72
2022/01/14 06:14:40;;;;;;;25.38;12.18;;;;;;;;;;4999831;28;20030;-72
2022/01/14 06:17:06;;;;;;;21.80;12.27;;;;;;;;;;4991460;28;20037;-73
2022/01/14 06:19:32;;;;;;;20.55;11.80;;;;;;;;;;5010320;28;20022;-71
2022/01/14 06:21:58;;;;;;;24.13;12.00;;;;;;;;;;5012657;28;20400;-71
2022/01/14 06:24:24;;;;;;;23.17;12.35;;;;;;;;;;5001845;28;20026;-72
2022/01/14 06:26:50;;;;;;;25.33;12.57;;;;;;;;;;5007132;28;20032;-73
2022/01/14 06:29:16;;;;;;;24.77;12.15;;;;;;;;;;4996110;28;20400;-72
2022/01/14 06:31:42;;;;;;;20.52;10.98;;;;;;;;;;4990259;28;20038;-71
2022/01/14 06:34:08;;;;;;;24.35;12.65;;;;;;;;;;5001609;28;20033;-72
2022/01/14 06:36:34;;;;;;;31.10;12.63;;;;;;;;;;5000440;28;20034;-73
2022/01/14 06:39:03;;;;;;;24.00;11.98;;;;;;;;;;5008139;28;20030;-73
2022/01/14 06:41:29;;;;;;;26.35;13.15;;;;;;;;;;4976703;28;20022;-73
2022/01/14 06:43:55;;;;;;;23.17;12.20;;;;;;;;;;5003091;28;20505;-72
2022/01/14 06:46:21;;;;;;;22.73;12.50;;;;;;;;;;5014180;28;20026;-72
2022/01/14 06:48:47;;;;;;;24.90;12.35;;;;;;;;;;5017371;28;20456;-73
2022/01/14 06:51:15;;;;;;;29.75;14.43;;;;;;;;;;5010291;28;20068;-73
2022/01/14 06:53:41;;;;;;;23.48;12.88;;;;;;;;;;5004001;28;20026;-73
2022/01/14 06:56:07;;;;;;;31.83;15.38;;;;;;;;;;4994043;28;20081;-73
2022/01/14 06:58:33;;;;;;;25.15;12.73;;;;;;;;;;5002561;28;20073;-73
2022/01/14 07:00:59;;;;;;;27.13;14.43;;;;;;;;;;5008016;28;20057;-72
2022/01/14 07:03:25;;;;;;;31.23;14.60;;;;;;;;;;5012440;28;20487;-72
2022/01/14 07:05:51;;;;;;;31.20;14.05;;;;;;;;;;5007612;28;20026;-73
2022/01/14 07:08:17;;;;;;;31.48;13.82;;;;;;;;;;5004276;28;20033;-73
2022/01/14 07:10:43;;;;;;;31.50;14.00;;;;;;;;;;4987373;28;20032;-72
2022/01/14 07:13:09;;;;;;;29.15;12.95;;;;;;;;;;5017621;28;20045;-73
2022/01/14 07:15:35;;;;;;;33.17;16.40;;;;;;;;;;5004398;28;20261;-73
2022/01/14 07:18:01;;;;;;;30.80;14.68;;;;;;;;;;4992444;28;20070;-72
2022/01/14 07:20:27;;;;;;;33.60;15.20;;;;;;;;;;4991580;28;20074;-73
2022/01/14 07:22:53;;;;;;;29.95;14.48;;;;;;;;;;4998701;28;20089;-73
2022/01/14 07:25:20;;;;;;;31.20;14.68;;;;;;;;;;5008960;28;20399;-72
2022/01/14 07:27:46;;;;;;;26.17;13.65;;;;;;;;;;4997710;28;20030;-72
2022/01/14 07:30:15;;;;;;;31.55;14.63;;;;;;;;;;5003462;28;20057;-72
2022/01/14 07:32:41;;;;;;;29.63;14.05;;;;;;;;;;5005221;28;20038;-72
2022/01/14 07:35:07;;;;;;;27.00;15.00;;;;;;;;;;4996233;28;20034;-72
2022/01/14 07:37:33;;;;;;;23.67;13.00;;;;;;;;;;4994453;28;20099;-72
2022/01/14 07:39:59;;;;;;;29.20;12.95;;;;;;;;;;5012492;28;20026;-72
2022/01/14 07:42:25;;;;;;;24.42;11.80;;;;;;;;;;5001656;28;20034;-73
2022/01/14 07:44:51;;;;;;;24.55;12.98;;;;;;;;;;5006924;28;20049;-71
2022/01/14 07:47:17;;;;;;;24.90;12.23;;;;;;;;;;4995724;28;20034;-71
2022/01/14 07:49:43;;;;;;;24.80;12.05;;;;;;;;;;5006957;28;20106;-73
2022/01/14 07:52:09;;;;;;;23.00;12.15;;;;;;;;;;5000459;28;20057;-72
2022/01/14 07:54:35;;;;;;;24.10;11.20;;;;;;;;;;4999495;28;20045;-72
2022/01/14 07:57:02;;;;;;;19.67;10.85;;;;;;;;;;5008942;28;20046;-73
2022/01/14 07:59:30;;;;;;;21.38;10.23;;;;;;;;;;4996368;28;20387;-76
2022/01/14 08:01:58;;;;;;;21.55;9.90;;;;;;;;;;4997748;28;20026;-76
2022/01/14 08:04:24;;;;;;;22.17;10.52;;;;;;;;;;4997255;28;20022;-75
2022/01/14 08:06:52;;;;;;;17.15;9.68;;;;;;;;;;5001104;28;20050;-74
2022/01/14 08:09:19;;;;;;;18.65;9.35;;;;;;;;;;5011377;28;20511;-74
2022/01/14 08:11:45;;;;;;;17.45;10.13;;;;;;;;;;5000102;28;20026;-75
2022/01/14 08:14:12;;;;;;;14.60;8.52;;;;;;;;;;4988405;28;20030;-75
2022/01/14 08:16:38;;;;;;;12.30;7.40;;;;;;;;;;5007408;28;20496;-74
2022/01/14 08:19:04;;;;;;;13.23;6.65;;;;;;;;;;4981770;28;20026;-73
2022/01/14 08:21:30;;;;;;;15.63;7.30;;;;;;;;;;5011180;28;20011;-73
2022/01/14 08:23:56;;;;;;;13.98;6.05;;;;;;;;;;5001594;28;20018;-75
2022/01/14 08:26:22;;;;;;;9.73;5.53;;;;;;;;;;5014404;28;20041;-70
2022/01/14 08:28:48;;;;;;;9.73;5.25;;;;;;;;;;5013144;28;20032;-70
2022/01/14 08:31:16;;;;;;;8.32;4.70;;;;;;;;;;5013126;28;20587;-70
2022/01/14 08:33:46;;;;;;;10.90;5.25;;;;;;;;;;5014277;28;20029;-70
2022/01/14 08:36:12;;;;;;;8.18;5.15;;;;;;;;;;5010937;28;20076;-70
2022/01/14 08:38:38;;;;;;;10.20;4.70;;;;;;;;;;5012417;28;20098;-70
2022/01/14 08:41:05;;;;;;;8.68;5.10;;;;;;;;;;5011848;28;20549;-71
2022/01/14 08:43:31;;;;;;;11.50;5.40;;;;;;;;;;4994514;28;20030;-71
2022/01/14 08:46:02;;;;;;;8.15;4.78;;;;;;;;;;5012490;28;20537;-70
2022/01/14 08:48:30;;;;;;;11.80;4.80;;;;;;;;;;5012428;28;20026;-71
2022/01/14 08:50:57;;;;;;;7.70;5.03;;;;;;;;;;5013415;28;20061;-70
2022/01/14 08:53:23;;;;;;;12.10;6.20;;;;;;;;;;5013739;28;20563;-71
2022/01/14 08:55:49;;;;;;;12.82;6.28;;;;;;;;;;5013828;28;20076;-70
2022/01/14 08:58:15;;;;;;;8.93;5.97;;;;;;;;;;5014170;28;20018;-70
2022/01/14 09:00:41;;;;;;;11.05;6.30;;;;;;;;;;5014216;28;20104;-71
2022/01/14 09:03:07;;;;;;;15.02;7.28;;;;;;;;;;4993904;28;20129;-71
2022/01/14 09:05:33;;;;;;;12.52;6.90;;;;;;;;;;4976942;28;20364;-71
2022/01/14 09:07:59;;;;;;;14.82;7.15;;;;;;;;;;4993691;28;20030;-71
2022/01/14 09:10:28;;;;;;;16.15;7.05;;;;;;;;;;5002964;28;20433;-71
2022/01/14 09:12:54;;;;;;;11.10;6.40;;;;;;;;;;5013908;28;20026;-71
2022/01/14 09:15:20;;;;;;;11.98;6.82;;;;;;;;;;5013786;28;20100;-72
2022/01/14 09:17:46;;;;;;;16.55;8.75;;;;;;;;;;5013925;28;20026;-72
2022/01/14 09:20:13;;;;;;;15.05;8.82;;;;;;;;;;5014252;28;20022;-71
2022/01/14 09:22:40;;;;;;;15.68;8.57;;;;;;;;;;4984526;28;20473;-71
2022/01/14 09:25:08;;;;;;;16.33;8.98;;;;;;;;;;4994333;28;20462;-70
2022/01/14 09:27:34;;;;;;;16.25;8.77;;;;;;;;;;4994099;28;20026;-70
2022/01/14 09:30:00;;;;;;;16.10;9.30;;;;;;;;;;4993536;28;20034;-72
2022/01/14 09:32:26;;;;;;;17.48;10.82;;;;;;;;;;4993727;28;20073;-71
2022/01/14 09:34:52;;;;;;;27.88;13.25;;;;;;;;;;4993765;28;20029;-71
2022/01/14 09:37:18;;;;;;;26.45;12.82;;;;;;;;;;5007776;28;20516;-76
2022/01/14 09:39:44;;;;;;;25.77;14.07;;;;;;;;;;5013510;28;20399;-71
2022/01/14 09:42:11;;;;;;;27.42;14.32;;;;;;;;;;5013459;28;20076;-70
2022/01/14 09:44:37;;;;;;;26.52;14.40;;;;;;;;;;5012977;28;20089;-72
2022/01/14 09:47:03;;;;;;;32.03;15.32;;;;;;;;;;5012991;28;20046;-72
2022/01/14 09:49:30;;;;;;;24.27;13.63;;;;;;;;;;5013250;28;20026;-71
2022/01/14 09:51:56;;;;;;;31.50;15.48;;;;;;;;;;5013476;28;20030;-72
2022/01/14 09:54:22;;;;;;;36.03;18.10;;;;;;;;;;5013243;28;20026;-70
2022/01/14 09:56:48;;;;;;;34.08;16.10;;;;;;;;;;5012782;28;20100;-71
2022/01/14 09:59:16;;;;;;;30.75;15.45;;;;;;;;;;4996386;28;20468;-70
2022/01/14 10:01:43;;;;;;;32.63;16.80;;;;;;;;;;4996170;28;20018;-71
2022/01/14 10:04:13;;;;;;;35.00;18.10;;;;;;;;;;5013906;28;20049;-71
2022/01/14 10:06:41;;;;;;;37.83;18.37;;;;;;;;;;5013711;28;20026;-72
2022/01/14 10:09:09;;;;;;;31.90;17.25;;;;;;;;;;5013439;28;20052;-73
2022/01/14 10:11:36;;;;;;;37.33;18.73;;;;;;;;;;5013525;28;20026;-72
2022/01/14 10:14:07;;;;;;;37.45;18.23;;;;;;;;;;5013029;28;20072;-71
2022/01/14 10:16:33;;;;;;;36.65;18.17;;;;;;;;;;5012674;28;20026;-72
2022/01/14 10:19:00;;;;;;;37.35;17.45;;;;;;;;;;5011763;28;20041;-72
2022/01/14 10:21:32;;;;;;;32.00;17.55;;;;;;;;;;5012889;28;20056;-72
2022/01/14 10:24:01;;;;;;;35.08;17.98;;;;;;;;;;5012532;28;20026;-70
2022/01/14 10:26:30;;;;;;;35.42;19.10;;;;;;;;;;5013071;28;20026;-70
2022/01/14 10:29:05;;;;;;;38.83;19.30;;;;;;;;;;5012884;28;20435;-71
2022/01/14 10:31:32;;;;;;;40.58;18.88;;;;;;;;;;5012335;28;20038;-70
2022/01/14 10:34:11;;;;;;;37.53;18.33;;;;;;;;;;5012312;28;20488;-71
2022/01/14 10:36:37;;;;;;;37.05;18.42;;;;;;;;;;5013381;28;20033;-71
2022/01/14 10:39:17;;;;;;;39.35;18.90;;;;;;;;;;5013612;28;20022;-71
2022/01/14 10:41:43;;;;;;;35.33;18.25;;;;;;;;;;5003396;28;20097;-71
2022/01/14 10:44:25;;;;;;;29.25;17.25;;;;;;;;;;5000731;28;20026;-71
2022/01/14 10:47:09;;;;;;;30.60;17.30;;;;;;;;;;5014406;28;20051;-70
2022/01/14 10:49:37;;;;;;;32.83;18.10;;;;;;;;;;5012701;28;20030;-71
2022/01/14 10:52:10;;;;;;;33.72;16.67;;;;;;;;;;5012433;28;20022;-70
2022/01/14 10:54:40;;;;;;;34.17;17.30;;;;;;;;;;4989640;28;20061;-71
2022/01/14 10:57:32;;;;;;;31.55;16.90;;;;;;;;;;4975012;28;20036;-71
2022/01/14 11:00:14;;;;;;;35.50;17.73;;;;;;;;;;4989402;28;20034;-70
2022/01/14 11:02:42;;;;;;;37.13;18.45;;;;;;;;;;4992369;28;20030;-70
2022/01/14 11:05:12;;;;;;;33.72;18.05;;;;;;;;;;4992885;28;20049;-72
2022/01/14 11:07:39;;;;;;;34.30;17.00;;;;;;;;;;4975161;28;20469;-71
2022/01/14 11:10:26;;;;;;;32.00;16.83;;;;;;;;;;4992660;28;20019;-71
2022/01/14 11:12:53;;;;;;;32.88;16.48;;;;;;;;;;4992677;28;20030;-71
2022/01/14 11:15:19;;;;;;;38.40;18.45;;;;;;;;;;4992435;28;20484;-70
2022/01/14 11:17:49;;;;;;;32.33;17.73;;;;;;;;;;4992433;28;20034;-71
2022/01/14 11:20:20;;;;;;;34.08;17.77;;;;;;;;;;4975086;28;20022;-71
2022/01/14 11:25:31;;;;;;;28.45;16.17;;;;;;;;;;4992664;28;20056;-71
2022/01/14 11:27:59;;;;;;;35.00;17.75;;;;;;;;;;4992394;28;20467;-72
2022/01/14 11:30:32;;;;;;;34.60;18.10;;;;;;;;;;5020990;23;20034;-70
2022/01/14 11:33:01;;;;;;;35.10;18.70;;;;;;;;;;5055819;28;20539;-70
2022/01/14 11:35:28;;;;;;;38.67;17.90;;;;;;;;;;5055825;28;20025;-69
2022/01/14 11:37:54;;;;;;;32.90;16.38;;;;;;;;;;5055970;28;20041;-70
2022/01/14 11:40:20;;;;;;;34.65;17.70;;;;;;;;;;5064281;28;20095;-71
2022/01/14 11:42:47;;;;;;;34.22;17.40;;;;;;;;;;5054791;28;20033;-70
2022/01/14 11:45:32;;;;;;;34.08;17.75;;;;;;;;;;5055745;28;20044;-70
2022/01/14 11:48:00;;;;;;;34.92;18.00;;;;;;;;;;5036476;28;20083;-69
2022/01/14 11:50:32;;;;;;;42.72;19.55;;;;;;;;;;5038446;28;20100;-70
2022/01/14 11:52:59;;;;;;;37.30;18.70;;;;;;;;;;5038416;28;20403;-71
2022/01/14 11:55:31;;;;;;;35.40;18.10;;;;;;;;;;5062123;28;20016;-69
2022/01/14 11:57:57;;;;;;;33.55;17.83;;;;;;;;;;5075321;28;20024;-70
2022/01/14 12:00:25;;;;;;;35.80;19.35;;;;;;;;;;5075287;28;20023;-67
2022/01/14 12:02:52;;;;;;;39.95;19.55;;;;;;;;;;5075241;28;20016;-69
2022/01/14 12:05:20;;;;;;;41.40;19.70;;;;;;;;;;5075743;28;20028;-69
2022/01/14 12:08:05;;;;;;;34.75;18.15;;;;;;;;;;5075505;28;20029;-70
2022/01/14 12:10:52;;;;;;;31.92;17.05;;;;;;;;;;5075744;28;20033;-70
2022/01/14 12:13:21;;;;;;;37.13;19.05;;;;;;;;;;5037391;28;20122;-70
2022/01/14 12:15:56;;;;;;;34.05;18.45;;;;;;;;;;5055449;28;20028;-71
2022/01/14 12:18:40;;;;;;;36.70;18.10;;;;;;;;;;5054818;28;20372;-71
2022/01/14 12:21:06;;;;;;;39.53;18.92;;;;;;;;;;5055246;28;20028;-70
2022/01/14 12:23:32;;;;;;;35.90;19.00;;;;;;;;;;5055276;28;20020;-70
2022/01/14 12:26:12;;;;;;;37.13;20.10;;;;;;;;;;5053727;28;20048;-70
2022/01/14 12:28:38;;;;;;;38.28;18.98;;;;;;;;;;5063543;28;20033;-72
2022/01/14 12:31:04;;;;;;;39.35;19.30;;;;;;;;;;5054676;28;20445;-69
2022/01/14 12:33:42;;;;;;;44.03;19.42;;;;;;;;;;5056377;28;20479;-72
2022/01/14 12:36:12;;;;;;;37.42;17.70;;;;;;;;;;5057313;28;20017;-69
2022/01/14 12:38:40;;;;;;;33.90;17.73;;;;;;;;;;5060667;28;20059;-70
2022/01/14 12:41:18;;;;;;;38.10;19.02;;;;;;;;;;5054107;28;20025;-70
2022/01/14 12:43:48;;;;;;;33.15;18.73;;;;;;;;;;5033750;28;20550;-70
2022/01/14 12:46:40;;;;;;;34.65;19.02;;;;;;;;;;5034507;28;20108;-72
2022/01/14 12:49:10;;;;;;;36.28;18.35;;;;;;;;;;5034567;28;20033;-69
2022/01/14 12:51:36;;;;;;;35.45;19.20;;;;;;;;;;5057937;28;20033;-69
2022/01/14 12:54:04;;;;;;;36.80;20.83;;;;;;;;;;5056442;28;20359;-69
2022/01/14 12:56:34;;;;;;;37.60;18.95;;;;;;;;;;5074282;28;20017;-70
2022/01/14 12:59:00;;;;;;;35.90;18.48;;;;;;;;;;5073528;28;20024;-70
2022/01/14 13:01:34;;;;;;;38.08;19.00;;;;;;;;;;5073141;28;20096;-70
2022/01/14 13:04:03;;;;;;;38.88;18.75;;;;;;;;;;5073204;28;20028;-70
2022/01/14 13:06:29;;;;;;;40.70;20.40;;;;;;;;;;5074734;28;20067;-70
2022/01/14 13:08:55;;;;;;;38.83;19.25;;;;;;;;;;5068420;28;20053;-69
2022/01/14 13:11:21;;;;;;;39.05;20.73;;;;;;;;;;5066255;28;20071;-72
2022/01/14 13:14:08;;;;;;;36.67;18.33;;;;;;;;;;5064101;28;20024;-68
2022/01/14 13:16:45;;;;;;;40.85;21.08;;;;;;;;;;5056991;28;20078;-70
2022/01/14 13:19:24;;;;;;;41.88;19.77;;;;;;;;;;5034183;28;20463;-69
2022/01/14 13:21:50;;;;;;;48.30;22.38;;;;;;;;;;5033936;28;20043;-69
2022/01/14 13:24:20;;;;;;;40.83;20.60;;;;;;;;;;5034276;28;20021;-73
2022/01/14 13:26:57;;;;;;;43.55;21.45;;;;;;;;;;5059599;28;20391;-68
2022/01/14 13:29:23;;;;;;;38.72;20.77;;;;;;;;;;5073932;28;20033;-70
2022/01/14 13:31:49;;;;;;;40.00;22.08;;;;;;;;;;5073465;28;20048;-70
2022/01/14 13:34:15;;;;;;;48.47;21.95;;;;;;;;;;5073460;28;20025;-70
2022/01/14 13:36:41;;;;;;;48.63;24.23;;;;;;;;;;5073961;28;20024;-67
2022/01/14 13:39:10;;;;;;;44.72;22.23;;;;;;;;;;5073467;28;20025;-71
2022/01/14 13:41:40;;;;;;;43.47;22.40;;;;;;;;;;5073192;28;20016;-69
2022/01/14 13:44:36;;;;;;;47.92;22.80;;;;;;;;;;5058027;28;20029;-69
2022/01/14 13:47:07;;;;;;;50.50;22.92;;;;;;;;;;5027171;28;20503;-67
2022/01/14 13:49:33;;;;;;;47.28;24.10;;;;;;;;;;5053132;28;20543;-72
2022/01/14 13:52:19;;;;;;;50.28;23.63;;;;;;;;;;5048653;28;20029;-70
2022/01/14 13:54:53;;;;;;;46.10;22.35;;;;;;;;;;5052713;28;20082;-69
2022/01/14 13:57:21;;;;;;;49.05;23.70;;;;;;;;;;5053265;28;20028;-71
2022/01/14 13:59:47;;;;;;;49.15;24.60;;;;;;;;;;5053094;28;20021;-71
2022/01/14 14:02:23;;;;;;;47.17;24.48;;;;;;;;;;5051640;28;20443;-69
2022/01/14 14:04:53;;;;;;;57.75;25.67;;;;;;;;;;5051113;28;20429;-71
2022/01/14 14:07:21;;;;;;;53.33;24.23;;;;;;;;;;5050899;28;20291;-69
2022/01/14 14:10:08;;;;;;;49.45;24.05;;;;;;;;;;5050926;28;20033;-69
2022/01/14 14:12:44;;;;;;;52.90;23.75;;;;;;;;;;5049638;28;20021;-71
2022/01/14 14:18:03;;;;;;;51.13;23.35;;;;;;;;;;5051046;28;20406;-72
2022/01/14 14:20:29;;;;;;;44.90;21.98;;;;;;;;;;5051510;28;20028;-72
2022/01/14 14:22:56;;;;;;;45.22;22.30;;;;;;;;;;5052125;28;20025;-68
2022/01/14 14:28:00;;;;;;;44.95;21.52;;;;;;;;;;5052661;28;20186;-69
2022/01/14 14:30:27;;;;;;;48.95;23.08;;;;;;;;;;5032461;28;20032;-70
2022/01/14 14:32:54;;;;;;;42.10;22.40;;;;;;;;;;5032604;28;20029;-69
2022/01/14 14:35:21;;;;;;;40.25;21.45;;;;;;;;;;5039346;28;20044;-70
2022/01/14 14:37:49;;;;;;;48.63;21.88;;;;;;;;;;5051762;28;20029;-70
2022/01/14 14:40:18;;;;;;;42.42;21.83;;;;;;;;;;5052197;28;20395;-72
2022/01/14 14:42:45;;;;;;;44.28;22.90;;;;;;;;;;5052132;28;20020;-68
2022/01/14 14:45:11;;;;;;;49.17;22.23;;;;;;;;;;5052634;28;20555;-70
2022/01/14 14:47:37;;;;;;;43.30;20.67;;;;;;;;;;5052577;28;20055;-73
2022/01/14 14:50:04;;;;;;;38.65;20.48;;;;;;;;;;5052082;28;20032;-69
2022/01/14 14:52:30;;;;;;;35.38;19.40;;;;;;;;;;5050167;28;20025;-71
2022/01/14 14:54:56;;;;;;;39.38;21.33;;;;;;;;;;5052030;28;20044;-70
2022/01/14 14:57:22;;;;;;;34.90;19.55;;;;;;;;;;5052072;28;20025;-71
2022/01/14 14:59:49;;;;;;;35.83;20.40;;;;;;;;;;5052124;28;20566;-70
2022/01/14 15:02:15;;;;;;;38.63;19.88;;;;;;;;;;5051829;28;20044;-69